Time;durP1;ratioP1;P1;durP2;ratioP2;P2;SDS_P1;SDS_P2;PMS_P1;PMS_P2;Temp;Humidity;BMP_temperature;BMP_pressure;BME280_temperature;BME280_humidity;BME280_pressure;Samples;Min_cycle;Max_cycle;Signal;HPM_P1;HPM_P2
2021/10/15 00:00:28;;;;;;;9.90;7.05;;;14.20;94.50;;;;;;5023845;28;20136;-58
2021/10/15 00:02:55;;;;;;;11.13;7.13;;;14.20;94.80;;;;;;5024690;28;20053;-59
2021/10/15 00:05:22;;;;;;;10.43;6.85;;;14.20;94.50;;;;;;5024720;28;20053;-58
2021/10/15 00:07:49;;;;;;;7.45;6.30;;;14.20;94.60;;;;;;5024841;28;20095;-58
2021/10/15 00:10:16;;;;;;;9.90;7.32;;;14.20;94.90;;;;;;5024611;28;20144;-59
2021/10/15 00:12:42;;;;;;;10.60;7.63;;;14.20;94.60;;;;;;5024016;28;20697;-59
2021/10/15 00:15:09;;;;;;;12.00;6.50;;;14.20;94.50;;;;;;5024046;28;20386;-58
2021/10/15 00:17:36;;;;;;;7.78;6.55;;;14.20;94.60;;;;;;5024181;28;20069;-58
2021/10/15 00:20:04;;;;;;;9.02;7.40;;;14.10;94.50;;;;;;5024112;28;20566;-59
2021/10/15 00:22:31;;;;;;;9.90;6.80;;;14.10;94.70;;;;;;5024497;28;20128;-58
2021/10/15 00:24:58;;;;;;;8.43;6.43;;;14.10;94.50;;;;;;5024957;28;20084;-59
2021/10/15 00:27:24;;;;;;;8.98;6.88;;;14.10;94.50;;;;;;5024442;28;20148;-58
2021/10/15 00:29:51;;;;;;;10.57;6.57;;;14.10;94.60;;;;;;5023259;28;20057;-59
2021/10/15 00:32:18;;;;;;;7.45;5.95;;;14.10;94.40;;;;;;5024061;28;20503;-59
2021/10/15 00:34:45;;;;;;;8.45;5.63;;;14.10;94.40;;;;;;5024311;28;20412;-59
2021/10/15 00:37:12;;;;;;;8.68;6.28;;;14.10;94.40;;;;;;5023337;28;20103;-59
2021/10/15 00:39:39;;;;;;;10.18;6.60;;;14.10;94.30;;;;;;5024189;28;20128;-58
2021/10/15 00:42:05;;;;;;;10.15;6.93;;;14.10;94.50;;;;;;5024302;28;20073;-58
2021/10/15 00:44:34;;;;;;;10.10;7.13;;;14.10;94.50;;;;;;5023746;28;20145;-58
2021/10/15 00:47:01;;;;;;;8.52;6.68;;;14.00;94.60;;;;;;5005623;28;20205;-59
2021/10/15 00:49:27;;;;;;;8.35;6.55;;;14.10;94.50;;;;;;5023441;28;20132;-58
2021/10/15 00:51:54;;;;;;;12.13;6.60;;;14.00;94.60;;;;;;5024439;28;20046;-58
2021/10/15 00:54:21;;;;;;;7.97;6.80;;;14.10;94.50;;;;;;5024286;28;20141;-59
2021/10/15 00:56:48;;;;;;;7.93;6.25;;;14.10;94.60;;;;;;5022452;28;20083;-58
2021/10/15 00:59:14;;;;;;;10.32;7.35;;;14.10;94.60;;;;;;5023161;28;20078;-59
2021/10/15 01:01:41;;;;;;;8.30;6.82;;;14.10;94.60;;;;;;5021192;28;20447;-58
2021/10/15 01:04:08;;;;;;;8.43;6.50;;;14.10;94.70;;;;;;5024301;28;20678;-58
2021/10/15 01:06:35;;;;;;;9.80;6.97;;;14.10;94.60;;;;;;5023179;28;20132;-58
2021/10/15 01:09:03;;;;;;;11.15;7.18;;;14.10;94.70;;;;;;5023494;28;20084;-58
2021/10/15 01:11:29;;;;;;;9.25;5.88;;;14.00;94.60;;;;;;5023594;28;20617;-58
2021/10/15 01:13:56;;;;;;;10.15;6.63;;;14.10;94.90;;;;;;5022166;28;20049;-58
2021/10/15 01:16:27;;;;;;;9.85;6.63;;;14.00;94.70;;;;;;5024106;28;20119;-59
2021/10/15 01:18:59;;;;;;;8.65;6.43;;;14.00;94.90;;;;;;5023079;28;20054;-59
2021/10/15 01:21:26;;;;;;;12.43;6.78;;;14.00;94.80;;;;;;5022904;28;20144;-58
2021/10/15 01:23:53;;;;;;;10.95;6.10;;;14.00;94.70;;;;;;5023288;28;20092;-58
2021/10/15 01:26:19;;;;;;;8.25;5.75;;;14.10;94.80;;;;;;5023143;28;20055;-58
2021/10/15 01:28:46;;;;;;;8.65;5.80;;;14.10;94.70;;;;;;5022710;28;20076;-58
2021/10/15 01:31:13;;;;;;;8.32;6.13;;;14.10;94.70;;;;;;5024013;28;20107;-58
2021/10/15 01:33:40;;;;;;;8.20;5.65;;;14.10;94.70;;;;;;5024462;28;20091;-58
2021/10/15 01:36:06;;;;;;;10.73;6.28;;;14.10;94.80;;;;;;5024449;28;20092;-58
2021/10/15 01:38:33;;;;;;;8.07;5.75;;;14.10;94.70;;;;;;5024676;28;20049;-58
2021/10/15 01:41:00;;;;;;;8.57;6.25;;;14.10;94.70;;;;;;5040288;28;20056;-58
2021/10/15 01:43:29;;;;;;;10.40;5.82;;;14.10;95.00;;;;;;5023587;28;20157;-58
2021/10/15 01:45:56;;;;;;;11.15;6.15;;;14.10;94.70;;;;;;5024409;28;20148;-58
2021/10/15 01:48:23;;;;;;;10.77;7.25;;;14.10;94.60;;;;;;5024311;28;20076;-58
2021/10/15 01:50:51;;;;;;;8.48;6.22;;;14.10;94.60;;;;;;5024992;28;20159;-58
2021/10/15 01:53:18;;;;;;;9.32;6.22;;;14.10;94.60;;;;;;5025323;28;20088;-58
2021/10/15 01:55:45;;;;;;;10.15;6.28;;;14.10;94.60;;;;;;5025072;28;20115;-57
2021/10/15 01:58:12;;;;;;;8.07;6.00;;;14.10;94.60;;;;;;5023331;28;20124;-58
2021/10/15 02:00:39;;;;;;;8.07;6.25;;;14.10;94.70;;;;;;5024430;28;20091;-58
2021/10/15 02:03:06;;;;;;;9.50;5.72;;;14.10;94.50;;;;;;5024751;28;20045;-58
2021/10/15 02:05:33;;;;;;;10.30;6.47;;;14.10;94.50;;;;;;5024543;28;20156;-58
2021/10/15 02:07:59;;;;;;;10.00;5.47;;;14.10;94.50;;;;;;5024376;28;20133;-58
2021/10/15 02:10:26;;;;;;;9.45;5.07;;;14.10;94.70;;;;;;5023561;28;20172;-59
2021/10/15 02:12:53;;;;;;;8.70;5.93;;;14.10;94.50;;;;;;5023834;28;20140;-58
2021/10/15 02:15:20;;;;;;;10.60;5.32;;;14.10;94.50;;;;;;5024311;28;20081;-58
2021/10/15 02:17:46;;;;;;;9.13;6.22;;;14.00;94.50;;;;;;5023896;28;20073;-58
2021/10/15 02:20:14;;;;;;;9.43;6.00;;;14.10;94.60;;;;;;5020830;28;20085;-59
2021/10/15 02:22:41;;;;;;;9.80;5.32;;;14.10;94.50;;;;;;5024148;28;20608;-59
2021/10/15 02:25:08;;;;;;;9.07;5.15;;;14.10;94.70;;;;;;5022723;28;20491;-58
2021/10/15 02:27:35;;;;;;;12.20;5.68;;;14.10;94.60;;;;;;5024234;28;20076;-59
2021/10/15 02:30:03;;;;;;;10.02;5.55;;;14.10;94.80;;;;;;5023003;28;20160;-59
2021/10/15 02:32:30;;;;;;;10.20;5.28;;;14.00;94.80;;;;;;5021719;28;20469;-58
2021/10/15 02:34:57;;;;;;;11.80;5.55;;;14.00;94.70;;;;;;5023755;28;20658;-58
2021/10/15 02:37:23;;;;;;;10.88;5.57;;;14.00;94.70;;;;;;5023896;28;20079;-58
2021/10/15 02:39:50;;;;;;;7.78;5.03;;;14.00;94.70;;;;;;5024083;28;20570;-58
2021/10/15 02:42:17;;;;;;;12.35;5.93;;;14.00;94.80;;;;;;5023176;28;20120;-58
2021/10/15 02:44:44;;;;;;;9.25;4.80;;;14.00;94.90;;;;;;5022888;28;20195;-59
2021/10/15 02:47:10;;;;;;;7.25;5.05;;;13.90;95.00;;;;;;5023007;28;20049;-58
2021/10/15 02:49:37;;;;;;;9.60;5.10;;;13.90;94.90;;;;;;5039074;28;20133;-57
2021/10/15 02:52:04;;;;;;;11.65;5.32;;;13.90;94.90;;;;;;5024246;28;20088;-58
2021/10/15 02:54:30;;;;;;;7.13;4.60;;;13.90;94.90;;;;;;5024548;28;20136;-58
2021/10/15 02:56:57;;;;;;;7.03;4.72;;;13.90;94.80;;;;;;5023484;28;20128;-58
2021/10/15 02:59:24;;;;;;;9.48;4.95;;;13.90;94.80;;;;;;5022282;28;20053;-58
2021/10/15 03:01:51;;;;;;;7.45;4.93;;;13.90;95.00;;;;;;5023680;28;20641;-58
2021/10/15 03:04:18;;;;;;;9.55;5.28;;;13.90;95.20;;;;;;5039135;28;20493;-57
2021/10/15 03:06:44;;;;;;;7.32;5.72;;;13.90;94.90;;;;;;5022930;28;20099;-58
2021/10/15 03:09:11;;;;;;;8.57;5.70;;;13.90;95.00;;;;;;5023466;28;20503;-58
2021/10/15 03:11:38;;;;;;;10.45;5.78;;;13.90;95.10;;;;;;5023702;28;20053;-58
2021/10/15 03:14:04;;;;;;;8.63;5.45;;;13.90;95.00;;;;;;5023598;28;20049;-58
2021/10/15 03:16:31;;;;;;;10.10;6.28;;;13.90;95.10;;;;;;5023940;28;20124;-57
2021/10/15 03:18:58;;;;;;;9.70;5.80;;;13.90;95.20;;;;;;5023299;28;20409;-58
2021/10/15 03:21:25;;;;;;;9.90;6.10;;;13.90;95.20;;;;;;5024077;28;20151;-58
2021/10/15 03:23:51;;;;;;;8.20;5.50;;;13.90;95.30;;;;;;5023439;28;20037;-58
2021/10/15 03:26:21;;;;;;;11.20;6.13;;;13.90;95.30;;;;;;5026363;28;20049;-58
2021/10/15 03:28:48;;;;;;;10.18;6.00;;;13.90;95.40;;;;;;5027041;28;20124;-58
2021/10/15 03:31:14;;;;;;;8.50;5.57;;;13.90;95.20;;;;;;5027501;28;20132;-57
2021/10/15 03:33:41;;;;;;;8.80;5.93;;;13.90;95.20;;;;;;5026063;28;20053;-58
2021/10/15 03:36:08;;;;;;;10.48;4.85;;;13.90;95.30;;;;;;5027676;28;20641;-58
2021/10/15 03:38:35;;;;;;;12.82;5.82;;;13.90;95.30;;;;;;5025883;28;20088;-58
2021/10/15 03:41:01;;;;;;;11.52;4.85;;;13.90;95.20;;;;;;5027841;28;20053;-58
2021/10/15 03:43:29;;;;;;;9.45;4.78;;;13.90;95.20;;;;;;5026557;28;20056;-57
2021/10/15 03:45:56;;;;;;;9.40;6.13;;;13.90;95.10;;;;;;5028024;28;20045;-57
2021/10/15 03:48:23;;;;;;;9.25;5.53;;;13.90;95.10;;;;;;5026360;28;20054;-58
2021/10/15 03:50:49;;;;;;;8.73;5.38;;;13.90;95.10;;;;;;5027765;28;20085;-58
2021/10/15 03:53:16;;;;;;;6.00;4.93;;;13.90;95.20;;;;;;5026922;28;20052;-57
2021/10/15 03:55:43;;;;;;;11.68;5.47;;;13.90;95.20;;;;;;5042845;28;20095;-58
2021/10/15 03:58:10;;;;;;;8.00;5.43;;;13.90;95.20;;;;;;5026622;28;20049;-58
2021/10/15 04:00:36;;;;;;;7.82;4.63;;;13.80;95.20;;;;;;5027428;28;20056;-58
2021/10/15 04:03:03;;;;;;;7.25;4.65;;;13.90;95.10;;;;;;5026839;28;20083;-58
2021/10/15 04:05:30;;;;;;;11.23;5.18;;;13.90;95.10;;;;;;5027633;28;20085;-58
2021/10/15 04:07:57;;;;;;;6.70;4.93;;;13.90;95.10;;;;;;5028193;28;20131;-58
2021/10/15 04:10:24;;;;;;;7.22;5.18;;;13.90;95.30;;;;;;5027619;28;20547;-59
2021/10/15 04:12:50;;;;;;;9.40;5.40;;;13.90;95.10;;;;;;5027060;28;20087;-58
2021/10/15 04:15:17;;;;;;;6.80;4.70;;;13.90;95.40;;;;;;5026403;28;20078;-59
2021/10/15 04:17:44;;;;;;;7.60;5.00;;;13.90;95.10;;;;;;5026025;28;20467;-58
2021/10/15 04:20:11;;;;;;;9.77;5.30;;;13.90;95.20;;;;;;5026740;28;20136;-58
2021/10/15 04:22:37;;;;;;;8.45;5.55;;;13.90;95.20;;;;;;5026886;28;20099;-59
2021/10/15 04:25:04;;;;;;;7.85;4.90;;;13.90;95.20;;;;;;5026903;28;20462;-59
2021/10/15 04:27:32;;;;;;;7.90;5.38;;;13.90;95.30;;;;;;5026819;28;20080;-58
2021/10/15 04:29:59;;;;;;;10.57;5.28;;;13.90;95.10;;;;;;5026157;28;20049;-59
2021/10/15 04:32:26;;;;;;;9.65;5.40;;;13.90;95.20;;;;;;5026478;28;20085;-59
2021/10/15 04:34:52;;;;;;;7.68;5.10;;;13.90;95.20;;;;;;5026507;28;20521;-63
2021/10/15 04:37:19;;;;;;;12.43;5.30;;;13.90;95.20;;;;;;5025562;28;20140;-59
2021/10/15 04:39:46;;;;;;;8.40;5.15;;;13.90;95.50;;;;;;5026789;28;20053;-58
2021/10/15 04:42:12;;;;;;;6.35;4.53;;;13.90;95.40;;;;;;5026417;28;20089;-59
2021/10/15 04:44:39;;;;;;;10.77;5.75;;;13.90;95.40;;;;;;5025925;28;20077;-59
2021/10/15 04:47:06;;;;;;;10.57;5.95;;;13.80;95.40;;;;;;5025728;28;20136;-59
2021/10/15 04:49:35;;;;;;;8.32;5.40;;;13.80;95.40;;;;;;5026398;28;20519;-59
2021/10/15 04:52:02;;;;;;;11.48;5.97;;;13.80;95.50;;;;;;5026732;28;20235;-58
2021/10/15 04:54:29;;;;;;;12.48;5.63;;;13.80;95.70;;;;;;5026243;28;20732;-58
2021/10/15 04:56:55;;;;;;;13.45;5.68;;;13.80;95.50;;;;;;5025362;28;20644;-58
2021/10/15 04:59:22;;;;;;;11.10;5.60;;;13.80;95.60;;;;;;5025260;28;20091;-58
2021/10/15 05:01:49;;;;;;;12.27;5.20;;;13.80;95.50;;;;;;5025011;28;20104;-58
2021/10/15 05:04:16;;;;;;;7.55;4.82;;;13.80;95.50;;;;;;5023486;28;20138;-58
2021/10/15 05:06:43;;;;;;;11.77;6.00;;;13.90;95.50;;;;;;5024228;28;20098;-58
2021/10/15 05:11:43;;;;;;;9.27;5.50;;;13.80;95.60;;;;;;5019403;28;20548;-58
2021/10/15 05:14:10;;;;;;;11.52;5.38;;;13.90;95.70;;;;;;5016984;28;20120;-58
2021/10/15 05:16:37;;;;;;;7.72;5.32;;;13.90;95.60;;;;;;5009425;28;20148;-58
2021/10/15 05:19:04;;;;;;;8.27;4.85;;;13.90;95.50;;;;;;5018202;28;20087;-58
2021/10/15 05:21:30;;;;;;;12.50;5.50;;;13.90;95.60;;;;;;5019996;28;20053;-59
2021/10/15 05:23:57;;;;;;;8.18;5.20;;;13.90;95.60;;;;;;5019461;28;20145;-58
2021/10/15 05:26:24;;;;;;;8.88;5.65;;;13.80;95.60;;;;;;5018942;28;20136;-58
2021/10/15 05:28:51;;;;;;;9.85;5.72;;;13.80;95.70;;;;;;5018217;28;20124;-59
2021/10/15 05:31:17;;;;;;;10.15;5.50;;;13.80;95.60;;;;;;5019453;28;20117;-59
2021/10/15 05:33:44;;;;;;;10.05;5.65;;;13.80;95.70;;;;;;5018421;28;20077;-59
2021/10/15 05:36:11;;;;;;;8.38;6.25;;;13.80;95.70;;;;;;5019315;28;20160;-59
2021/10/15 05:38:37;;;;;;;10.68;5.85;;;13.80;95.80;;;;;;5019126;28;20120;-58
2021/10/15 05:41:04;;;;;;;8.55;5.82;;;13.80;95.80;;;;;;5016848;28;20068;-59
2021/10/15 05:43:31;;;;;;;7.63;4.85;;;13.70;95.80;;;;;;5018331;28;20152;-59
2021/10/15 05:45:58;;;;;;;9.90;5.43;;;13.70;95.80;;;;;;5020633;28;20136;-58
2021/10/15 05:48:25;;;;;;;16.60;6.40;;;13.80;95.90;;;;;;5018846;28;20142;-59
2021/10/15 05:50:51;;;;;;;9.60;5.63;;;13.70;95.90;;;;;;5020107;28;20683;-58
2021/10/15 05:53:20;;;;;;;8.07;4.93;;;13.70;96.00;;;;;;5019810;28;20103;-58
2021/10/15 06:01:14;;;;;;;9.27;6.47;;;13.70;96.00;;;;;;5019830;28;20143;-60
2021/10/15 06:03:44;;;;;;;9.02;6.10;;;13.70;96.10;;;;;;5017434;28;20530;-60
2021/10/15 06:14:28;;;;;;;10.02;5.88;;;13.70;96.40;;;;;;5010524;28;20140;-59
2021/10/15 06:17:06;;;;;;;8.88;5.18;;;13.70;96.10;;;;;;5018491;28;20164;-59
2021/10/15 06:19:43;;;;;;;7.35;5.47;;;13.70;96.10;;;;;;5019723;28;20468;-59
2021/10/15 06:22:09;;;;;;;9.32;5.43;;;13.70;96.10;;;;;;5018573;28;20124;-60
2021/10/15 06:24:36;;;;;;;12.68;5.82;;;13.70;96.10;;;;;;5019624;28;20588;-59
2021/10/15 06:27:03;;;;;;;11.30;5.78;;;13.80;96.10;;;;;;5019620;28;20144;-59
2021/10/15 06:29:30;;;;;;;12.52;5.80;;;13.70;96.10;;;;;;5016663;28;20131;-59
2021/10/15 06:31:57;;;;;;;9.88;5.68;;;13.80;96.10;;;;;;5018590;28;20200;-60
2021/10/15 06:34:24;;;;;;;13.52;5.30;;;13.80;96.10;;;;;;5019127;28;20045;-60
2021/10/15 06:36:50;;;;;;;10.05;5.47;;;13.80;96.10;;;;;;5018424;28;20164;-59
2021/10/15 06:39:17;;;;;;;11.73;5.85;;;13.80;96.10;;;;;;5018985;28;20096;-60
2021/10/15 06:41:44;;;;;;;13.02;5.40;;;13.80;96.10;;;;;;5018864;28;20369;-60
2021/10/15 06:44:12;;;;;;;9.77;5.55;;;13.80;96.20;;;;;;5018748;28;20497;-59
2021/10/15 06:46:38;;;;;;;9.10;5.45;;;13.80;96.10;;;;;;5018853;28;20498;-59
2021/10/15 06:49:09;;;;;;;11.70;6.43;;;13.80;96.00;;;;;;5018510;28;20045;-59
2021/10/15 06:51:38;;;;;;;9.50;5.47;;;13.80;96.00;;;;;;5018996;28;20123;-59
2021/10/15 06:54:05;;;;;;;11.38;5.80;;;13.80;96.00;;;;;;5017168;28;20457;-59
2021/10/15 06:56:31;;;;;;;11.25;5.90;;;13.90;96.00;;;;;;5017767;28;20532;-60
2021/10/15 06:58:58;;;;;;;11.30;5.60;;;13.80;96.00;;;;;;5016974;28;20139;-60
2021/10/15 07:01:25;;;;;;;11.90;6.15;;;13.90;96.00;;;;;;5017363;28;20091;-59
2021/10/15 07:03:52;;;;;;;7.85;5.53;;;13.90;96.00;;;;;;5017513;28;20045;-60
2021/10/15 07:06:19;;;;;;;11.88;6.55;;;13.90;96.00;;;;;;5016393;28;20076;-59
2021/10/15 07:08:45;;;;;;;10.30;5.85;;;13.90;96.10;;;;;;5017498;28;20124;-59
2021/10/15 07:11:13;;;;;;;11.05;6.18;;;13.90;96.00;;;;;;5018735;28;20475;-59
2021/10/15 07:13:40;;;;;;;9.60;5.72;;;13.90;96.10;;;;;;5017695;28;20049;-60
2021/10/15 07:16:08;;;;;;;12.77;5.45;;;13.90;96.10;;;;;;5018540;28;20522;-59
2021/10/15 07:18:35;;;;;;;6.53;5.65;;;13.90;96.00;;;;;;5017216;28;20053;-59
2021/10/15 07:21:02;;;;;;;12.35;5.40;;;13.90;95.90;;;;;;5018607;28;20055;-59
2021/10/15 07:23:29;;;;;;;8.82;5.05;;;14.00;95.90;;;;;;5012593;28;20152;-60
2021/10/15 07:25:57;;;;;;;11.13;5.50;;;14.00;95.90;;;;;;5018335;28;20060;-59
2021/10/15 07:28:24;;;;;;;13.98;5.63;;;14.00;95.90;;;;;;5017112;28;20061;-58
2021/10/15 07:30:50;;;;;;;19.70;6.07;;;14.00;95.80;;;;;;5018350;28;20119;-60
2021/10/15 07:33:17;;;;;;;11.10;6.15;;;14.00;95.80;;;;;;5016624;28;20053;-59
2021/10/15 07:35:44;;;;;;;9.05;5.13;;;14.00;95.90;;;;;;5014546;28;20281;-59
2021/10/15 07:38:11;;;;;;;7.90;5.85;;;14.10;95.70;;;;;;5007643;28;20056;-59
2021/10/15 07:40:38;;;;;;;8.98;6.10;;;14.10;96.00;;;;;;5017017;28;20041;-60
2021/10/15 07:43:04;;;;;;;11.20;6.05;;;14.10;95.70;;;;;;5012208;28;20548;-60
2021/10/15 07:45:31;;;;;;;8.35;5.45;;;14.20;95.60;;;;;;5016889;28;20264;-60
2021/10/15 07:47:58;;;;;;;12.15;5.68;;;14.20;95.60;;;;;;5014486;28;20050;-60
2021/10/15 07:50:25;;;;;;;10.23;5.95;;;14.20;95.60;;;;;;5015010;28;20120;-59
2021/10/15 07:52:52;;;;;;;15.88;5.72;;;14.20;95.60;;;;;;5017407;28;20575;-59
2021/10/15 07:55:19;;;;;;;10.52;6.07;;;14.20;95.60;;;;;;5017028;28;20050;-59
2021/10/15 07:57:46;;;;;;;11.48;5.03;;;14.20;95.40;;;;;;5015401;28;20151;-59
2021/10/15 08:00:13;;;;;;;12.48;6.05;;;14.20;95.40;;;;;;5016364;28;20143;-58
2021/10/15 08:02:39;;;;;;;9.63;5.55;;;14.20;95.50;;;;;;5013559;28;20182;-59
2021/10/15 08:05:07;;;;;;;11.30;5.18;;;14.20;95.50;;;;;;5013464;28;20490;-59
2021/10/15 08:07:34;;;;;;;9.13;5.18;;;14.30;95.40;;;;;;5017008;28;20083;-59
2021/10/15 08:10:00;;;;;;;11.73;5.22;;;14.30;95.30;;;;;;5016563;28;20791;-59
2021/10/15 08:12:27;;;;;;;9.70;5.85;;;14.30;95.30;;;;;;5016975;28;20084;-59
2021/10/15 08:14:54;;;;;;;10.23;5.65;;;14.30;95.20;;;;;;5017363;28;20248;-59
2021/10/15 08:17:21;;;;;;;14.38;6.03;;;14.30;95.30;;;;;;5019928;28;20520;-59
2021/10/15 08:19:48;;;;;;;9.55;4.95;;;14.30;95.30;;;;;;5023059;28;20065;-59
2021/10/15 08:22:15;;;;;;;10.43;4.82;;;14.30;95.30;;;;;;5025762;28;20045;-59
2021/10/15 08:24:41;;;;;;;9.85;4.43;;;14.30;95.20;;;;;;5023321;28;20049;-59
2021/10/15 08:27:08;;;;;;;10.90;4.43;;;14.20;95.20;;;;;;5024647;28;20064;-59
2021/10/15 08:29:39;;;;;;;7.30;4.47;;;14.20;95.30;;;;;;5026873;28;20514;-59
2021/10/15 08:32:07;;;;;;;9.65;4.15;;;14.20;95.30;;;;;;5026788;28;20451;-59
2021/10/15 08:34:34;;;;;;;6.68;4.40;;;14.20;95.50;;;;;;5026483;28;20064;-58
2021/10/15 08:37:00;;;;;;;5.70;4.45;;;14.00;95.30;;;;;;5024577;28;20046;-58
2021/10/15 08:39:28;;;;;;;9.60;4.93;;;13.90;95.60;;;;;;5026141;28;20444;-58
2021/10/15 08:41:56;;;;;;;5.65;3.92;;;13.80;95.70;;;;;;5024670;28;20532;-59
2021/10/15 08:44:27;;;;;;;6.55;4.07;;;13.80;95.20;;;;;;5024258;28;20041;-59
2021/10/15 08:46:55;;;;;;;10.18;3.42;;;13.70;95.30;;;;;;5023462;28;20060;-59
2021/10/15 08:49:42;;;;;;;8.13;2.75;;;13.70;95.50;;;;;;5024890;28;20436;-59
2021/10/15 08:52:12;;;;;;;5.03;2.72;;;13.70;95.30;;;;;;5025028;28;20216;-58
2021/10/15 08:54:43;;;;;;;6.53;2.55;;;13.70;95.10;;;;;;5024116;28;20049;-58
2021/10/15 08:57:11;;;;;;;3.33;2.22;;;13.70;95.20;;;;;;5025604;28;20456;-58
2021/10/15 08:59:44;;;;;;;3.97;1.90;;;13.70;95.30;;;;;;5024702;28;20052;-59
2021/10/15 09:02:21;;;;;;;3.55;1.73;;;13.70;95.10;;;;;;5025273;28;20140;-59
2021/10/15 09:04:55;;;;;;;5.00;1.60;;;13.70;94.80;;;;;;5027322;28;20048;-59
2021/10/15 09:07:23;;;;;;;1.90;1.38;;;13.70;94.80;;;;;;5025356;28;20084;-59
2021/10/15 09:10:06;;;;;;;1.83;1.00;;;13.70;95.10;;;;;;5023793;28;20041;-59
2021/10/15 09:12:44;;;;;;;3.40;1.10;;;13.60;95.10;;;;;;5024125;28;20611;-59
2021/10/15 09:15:11;;;;;;;4.70;1.20;;;13.60;95.10;;;;;;5024837;28;20540;-59
2021/10/15 09:17:49;;;;;;;2.35;1.20;;;13.50;95.80;;;;;;5020993;28;20077;-59
2021/10/15 09:20:35;;;;;;;2.08;1.17;;;13.40;96.30;;;;;;5023490;28;20125;-58
2021/10/15 09:23:09;;;;;;;1.65;0.80;;;13.20;97.40;;;;;;5020815;28;20046;-59
2021/10/15 09:25:37;;;;;;;1.33;0.95;;;13.20;96.90;;;;;;5022816;28;20131;-58
2021/10/15 09:28:12;;;;;;;2.58;0.82;;;13.10;97.40;;;;;;5021847;28;20500;-59
2021/10/15 09:30:40;;;;;;;2.00;1.08;;;13.00;97.20;;;;;;5022599;28;20444;-58
2021/10/15 09:33:07;;;;;;;2.47;0.95;;;12.90;96.30;;;;;;5020309;28;20063;-59
2021/10/15 09:35:36;;;;;;;5.55;1.15;;;12.80;95.60;;;;;;5024099;28;20052;-59
2021/10/15 09:38:08;;;;;;;0.82;0.57;;;12.80;96.10;;;;;;5023876;28;20574;-59
2021/10/15 09:40:39;;;;;;;2.63;0.70;;;12.80;95.70;;;;;;5023705;28;20232;-59
2021/10/15 09:43:07;;;;;;;3.10;1.02;;;12.80;95.30;;;;;;5025341;28;20073;-59
2021/10/15 09:45:40;;;;;;;1.77;0.80;;;12.80;95.30;;;;;;5028016;28;20542;-59
2021/10/15 09:48:17;;;;;;;3.03;1.30;;;12.80;95.60;;;;;;5019663;28;20119;-60
2021/10/15 09:50:44;;;;;;;4.57;1.23;;;13.00;96.00;;;;;;5019934;28;20053;-59
2021/10/15 09:53:11;;;;;;;2.38;1.67;;;13.10;95.20;;;;;;5021944;28;20408;-59
2021/10/15 09:55:42;;;;;;;2.22;1.00;;;13.10;95.20;;;;;;5024403;28;20084;-59
2021/10/15 09:58:13;;;;;;;2.83;1.10;;;13.30;95.50;;;;;;5018473;28;20580;-59
2021/10/15 10:00:41;;;;;;;3.65;1.20;;;13.40;94.40;;;;;;5018701;28;20103;-59
2021/10/15 10:03:08;;;;;;;4.20;1.20;;;13.60;94.80;;;;;;5016929;28;20296;-60
2021/10/15 10:05:36;;;;;;;7.22;1.38;;;13.80;94.50;;;;;;5018569;28;20050;-59
2021/10/15 10:08:07;;;;;;;4.88;1.15;;;13.90;94.20;;;;;;5018188;28;20060;-59
2021/10/15 10:10:34;;;;;;;5.10;1.10;;;14.00;93.70;;;;;;5017995;28;20099;-59
2021/10/15 10:13:03;;;;;;;5.70;2.25;;;14.00;92.60;;;;;;5012486;28;20107;-59
2021/10/15 10:15:31;;;;;;;4.03;1.00;;;14.00;92.60;;;;;;5008106;28;20045;-59
2021/10/15 10:18:17;;;;;;;7.57;1.95;;;14.10;91.80;;;;;;5016856;28;20140;-60
2021/10/15 10:21:02;;;;;;;2.35;1.00;;;14.10;91.90;;;;;;5016251;28;20057;-59
2021/10/15 10:24:01;;;;;;;3.67;1.33;;;14.10;90.70;;;;;;5015733;28;20835;-58
2021/10/15 10:26:28;;;;;;;3.35;1.08;;;14.00;90.70;;;;;;4999595;28;20087;-59
2021/10/15 10:29:05;;;;;;;6.00;1.30;;;14.00;90.60;;;;;;4998359;28;20089;-59
2021/10/15 10:31:33;;;;;;;4.00;1.15;;;14.00;90.40;;;;;;5018044;28;20152;-58
2021/10/15 10:34:09;;;;;;;4.22;1.10;;;14.10;90.90;;;;;;5016015;28;20049;-60
2021/10/15 10:36:38;;;;;;;4.82;0.80;;;14.10;90.20;;;;;;5016183;28;20060;-58
2021/10/15 10:39:20;;;;;;;5.03;1.25;;;14.20;90.10;;;;;;5017826;28;20253;-59
2021/10/15 10:42:09;;;;;;;4.10;1.10;;;14.30;89.20;;;;;;5017186;28;20120;-59
2021/10/15 10:44:40;;;;;;;2.80;0.90;;;14.40;90.20;;;;;;5015772;28;20444;-59
2021/10/15 10:47:15;;;;;;;3.65;1.40;;;14.40;90.10;;;;;;5015920;28;20072;-59
2021/10/15 10:50:09;;;;;;;3.75;1.30;;;14.40;90.00;;;;;;5015808;28;20049;-59
2021/10/15 10:52:43;;;;;;;7.10;2.85;;;14.40;87.70;;;;;;5025917;28;20131;-59
2021/10/15 10:55:31;;;;;;;5.10;2.17;;;14.40;89.90;;;;;;5016432;28;20521;-59
2021/10/15 10:57:58;;;;;;;4.75;1.58;;;14.60;88.60;;;;;;5015333;28;20054;-60
2021/10/15 11:00:26;;;;;;;7.13;2.17;;;14.70;88.60;;;;;;5016292;28;20136;-59
2021/10/15 11:02:54;;;;;;;7.22;1.95;;;14.90;88.10;;;;;;5015536;28;20059;-59
2021/10/15 11:05:32;;;;;;;5.93;1.23;;;14.90;86.30;;;;;;5016368;28;20100;-59
2021/10/15 11:08:23;;;;;;;10.07;2.28;;;14.90;85.20;;;;;;5017038;28;20080;-59
2021/10/15 11:10:51;;;;;;;8.68;1.63;;;15.00;83.00;;;;;;5016957;28;20053;-59
2021/10/15 11:13:31;;;;;;;6.63;2.35;;;15.10;84.80;;;;;;5016171;28;20056;-58
2021/10/15 11:15:58;;;;;;;5.32;2.05;;;15.20;83.40;;;;;;5018960;28;20088;-59
2021/10/15 11:18:25;;;;;;;4.28;1.73;;;15.30;83.10;;;;;;5017544;28;20645;-60
2021/10/15 11:20:53;;;;;;;5.57;1.60;;;15.60;84.10;;;;;;5019558;28;20131;-59
2021/10/15 11:23:20;;;;;;;6.47;1.63;;;15.80;83.40;;;;;;5017619;28;20131;-59
2021/10/15 11:25:48;;;;;;;5.28;1.95;;;15.90;82.30;;;;;;5016786;28;20445;-59
2021/10/15 11:28:17;;;;;;;6.65;1.60;;;15.90;79.70;;;;;;5021173;28;20413;-59
2021/10/15 11:30:47;;;;;;;9.25;1.70;;;15.90;78.80;;;;;;5017295;28;20069;-60
2021/10/15 11:33:15;;;;;;;8.68;1.60;;;15.80;78.90;;;;;;5017959;28;20053;-59
2021/10/15 11:35:44;;;;;;;8.13;1.80;;;15.80;80.10;;;;;;5017364;28;20171;-59
2021/10/15 11:38:27;;;;;;;4.65;2.17;;;15.80;80.50;;;;;;5011954;28;20050;-59
2021/10/15 11:41:03;;;;;;;6.75;2.08;;;15.80;77.70;;;;;;5017985;28;20713;-59
2021/10/15 11:43:31;;;;;;;6.00;2.13;;;15.70;79.70;;;;;;5017252;28;20123;-59
2021/10/15 11:46:04;;;;;;;11.88;2.55;;;15.70;77.60;;;;;;5019365;28;20057;-59
2021/10/15 11:48:37;;;;;;;2.80;1.30;;;15.80;77.30;;;;;;5021174;28;20762;-60
2021/10/15 11:51:08;;;;;;;6.18;1.63;;;16.10;75.40;;;;;;5023605;28;20048;-60
2021/10/15 11:53:48;;;;;;;7.07;1.40;;;16.40;77.70;;;;;;5023877;28;20279;-60
2021/10/15 11:56:16;;;;;;;5.53;2.03;;;16.50;76.20;;;;;;5024069;28;20521;-59
2021/10/15 11:58:44;;;;;;;4.88;1.75;;;16.90;74.50;;;;;;5011846;28;20100;-59
2021/10/15 12:01:14;;;;;;;8.63;2.05;;;17.20;75.20;;;;;;5022648;28;20387;-60
2021/10/15 12:03:50;;;;;;;6.90;2.00;;;17.40;71.50;;;;;;5021354;28;20148;-60
2021/10/15 12:06:18;;;;;;;8.70;2.63;;;17.70;73.20;;;;;;5037380;28;20412;-59
2021/10/15 12:08:46;;;;;;;6.85;1.73;;;18.00;72.20;;;;;;5006028;28;20153;-59
2021/10/15 12:11:18;;;;;;;6.88;1.52;;;18.70;72.40;;;;;;5018397;28;20065;-59
2021/10/15 12:13:45;;;;;;;3.05;1.77;;;19.20;66.90;;;;;;5018559;28;20064;-59
2021/10/15 12:16:29;;;;;;;6.28;2.20;;;19.20;63.50;;;;;;5019251;28;20045;-59
2021/10/15 12:19:22;;;;;;;7.28;1.95;;;19.60;62.50;;;;;;5013443;28;20126;-59
2021/10/15 12:21:57;;;;;;;7.15;1.83;;;19.80;60.80;;;;;;5011441;28;20180;-60
2021/10/15 12:24:32;;;;;;;7.47;2.53;;;20.10;63.30;;;;;;5016614;28;20578;-59
2021/10/15 12:27:11;;;;;;;9.73;2.50;;;20.10;59.30;;;;;;5015201;28;20057;-59
2021/10/15 12:29:49;;;;;;;5.35;1.88;;;19.70;61.10;;;;;;5017699;28;20141;-59
2021/10/15 12:32:19;;;;;;;6.70;1.75;;;19.60;63.10;;;;;;5012289;28;20462;-59
2021/10/15 12:35:04;;;;;;;5.63;2.58;;;19.30;62.80;;;;;;5016158;28;20054;-59
2021/10/15 12:37:43;;;;;;;7.40;2.17;;;18.80;61.40;;;;;;5017100;28;20144;-59
2021/10/15 12:40:31;;;;;;;7.57;2.03;;;18.50;63.60;;;;;;5015972;28;20524;-59
2021/10/15 12:43:05;;;;;;;6.50;2.47;;;18.40;63.40;;;;;;5015349;28;20464;-59
2021/10/15 12:45:40;;;;;;;10.13;2.38;;;18.50;64.40;;;;;;5016754;28;20283;-59
2021/10/15 12:48:17;;;;;;;6.13;1.80;;;18.30;64.90;;;;;;5017889;28;20049;-59
2021/10/15 12:51:11;;;;;;;6.03;1.83;;;18.30;65.00;;;;;;5020342;28;20045;-59
2021/10/15 12:53:43;;;;;;;10.67;2.57;;;18.20;64.50;;;;;;5019536;28;20173;-59
2021/10/15 12:56:20;;;;;;;7.03;1.80;;;18.00;64.40;;;;;;5022021;28;20104;-59
2021/10/15 12:58:54;;;;;;;6.90;1.95;;;17.80;65.50;;;;;;5017648;28;20533;-59
2021/10/15 13:01:24;;;;;;;6.80;1.98;;;17.70;66.90;;;;;;5021597;28;20050;-59
2021/10/15 13:03:52;;;;;;;6.68;1.75;;;17.50;68.10;;;;;;5020655;28;20133;-59
2021/10/15 13:06:18;;;;;;;4.70;2.08;;;17.40;68.30;;;;;;5020992;28;20128;-59
2021/10/15 13:08:49;;;;;;;9.05;2.28;;;17.20;69.00;;;;;;5019866;28;20437;-59